KSLE/SLE METAR and TAF weather

Enter ICAO airport designator
Station Type Date Time Source
KSLE METAR 2019/10/23 07:56 UTC NOAA

KSLE 230756Z AUTO 32003KT 10SM CLR 08/07 A3043 RMK AO2 SLP303 T00830067 401890083


Station Type Date Time Source
KSLE Decoded METAR 2019/10/23 07:56 UTC NOAA

SALEM MCNARY FIELD, OR, United States (KSLE) 44-54N 123-00W 59M
Oct 23, 2019 - 03:56 AM EDT / 2019.10.23 0756 UTC
Wind: from the NW (320 degrees) at 3 MPH (3 KT):0
Visibility: 10 mile(s):0
Sky conditions: clear
Temperature: 46.9 F (8.3 C)
Dew Point: 44.1 F (6.7 C)
Relative Humidity: 89%
Pressure (altimeter): 30.43 in. Hg (1030 hPa)
ob: KSLE 230756Z AUTO 32003KT 10SM CLR 08/07 A3043 RMK AO2 SLP303 T00830067 401890083
cycle: 8

Station Type Date Time Source
KSLE TAF 2019/10/23 06:33 UTC NOAA

TAF KSLE 230530Z 2306/2406 33005KT P6SM SCT045
FM230800 VRB03KT 6SM BR VCFG SCT005 OVC025
FM231200 VRB02KT 3SM BR BKN015
FM231700 36003KT 5SM BR BKN025
FM232000 VRB03KT P6SM SCT025

Example: see airport list